sensor_id;sensor_type;location;lat;lon;timestamp;P1;durP1;ratioP1;P2;durP2;ratioP2
45836;SDS011;31548;51.420;-0.040;2022-12-18T00:01:53;38.75;;;15.95;;
45836;SDS011;31548;51.420;-0.040;2022-12-18T00:04:25;40.53;;;15.40;;
45836;SDS011;31548;51.420;-0.040;2022-12-18T00:06:53;41.00;;;16.05;;
45836;SDS011;31548;51.420;-0.040;2022-12-18T00:09:21;45.28;;;16.63;;
45836;SDS011;31548;51.420;-0.040;2022-12-18T00:11:50;37.00;;;16.15;;
45836;SDS011;31548;51.420;-0.040;2022-12-18T00:14:17;41.45;;;14.77;;
45836;SDS011;31548;51.420;-0.040;2022-12-18T00:16:45;40.10;;;14.50;;
45836;SDS011;31548;51.420;-0.040;2022-12-18T00:19:13;35.25;;;14.68;;
45836;SDS011;31548;51.420;-0.040;2022-12-18T00:21:42;41.88;;;15.93;;
45836;SDS011;31548;51.420;-0.040;2022-12-18T00:24:11;39.17;;;15.65;;
45836;SDS011;31548;51.420;-0.040;2022-12-18T00:26:38;40.63;;;14.20;;
45836;SDS011;31548;51.420;-0.040;2022-12-18T00:29:10;35.50;;;14.30;;
45836;SDS011;31548;51.420;-0.040;2022-12-18T00:31:42;41.80;;;16.25;;
45836;SDS011;31548;51.420;-0.040;2022-12-18T00:34:11;37.65;;;14.63;;
45836;SDS011;31548;51.420;-0.040;2022-12-18T00:36:40;35.38;;;13.85;;
45836;SDS011;31548;51.420;-0.040;2022-12-18T00:39:09;31.02;;;13.10;;
45836;SDS011;31548;51.420;-0.040;2022-12-18T00:41:37;32.00;;;13.77;;
45836;SDS011;31548;51.420;-0.040;2022-12-18T00:44:24;36.25;;;13.73;;
45836;SDS011;31548;51.420;-0.040;2022-12-18T00:46:51;36.40;;;12.95;;
45836;SDS011;31548;51.420;-0.040;2022-12-18T00:49:19;29.92;;;12.80;;
45836;SDS011;31548;51.420;-0.040;2022-12-18T00:51:47;36.83;;;13.57;;
45836;SDS011;31548;51.420;-0.040;2022-12-18T00:54:15;35.78;;;13.88;;
45836;SDS011;31548;51.420;-0.040;2022-12-18T00:56:44;34.22;;;13.07;;
45836;SDS011;31548;51.420;-0.040;2022-12-18T00:59:16;36.70;;;13.85;;
45836;SDS011;31548;51.420;-0.040;2022-12-18T01:01:44;37.60;;;13.73;;
45836;SDS011;31548;51.420;-0.040;2022-12-18T01:04:11;33.50;;;13.35;;
45836;SDS011;31548;51.420;-0.040;2022-12-18T01:06:39;33.40;;;13.00;;
45836;SDS011;31548;51.420;-0.040;2022-12-18T01:09:06;33.58;;;12.68;;
45836;SDS011;31548;51.420;-0.040;2022-12-18T01:11:35;38.45;;;16.05;;
45836;SDS011;31548;51.420;-0.040;2022-12-18T01:14:04;33.85;;;13.13;;
45836;SDS011;31548;51.420;-0.040;2022-12-18T01:16:36;31.42;;;13.38;;
45836;SDS011;31548;51.420;-0.040;2022-12-18T01:19:03;31.50;;;12.32;;
45836;SDS011;31548;51.420;-0.040;2022-12-18T01:21:31;32.72;;;12.05;;
45836;SDS011;31548;51.420;-0.040;2022-12-18T01:24:02;37.40;;;14.30;;
45836;SDS011;31548;51.420;-0.040;2022-12-18T01:26:30;37.28;;;14.68;;
45836;SDS011;31548;51.420;-0.040;2022-12-18T01:28:58;37.85;;;13.82;;
45836;SDS011;31548;51.420;-0.040;2022-12-18T01:31:26;29.85;;;12.60;;
45836;SDS011;31548;51.420;-0.040;2022-12-18T01:33:56;29.52;;;12.55;;
45836;SDS011;31548;51.420;-0.040;2022-12-18T01:36:31;34.53;;;13.98;;
45836;SDS011;31548;51.420;-0.040;2022-12-18T01:39:04;36.25;;;13.68;;
45836;SDS011;31548;51.420;-0.040;2022-12-18T01:41:40;38.22;;;13.13;;
45836;SDS011;31548;51.420;-0.040;2022-12-18T01:50:10;34.13;;;12.85;;
45836;SDS011;31548;51.420;-0.040;2022-12-18T01:52:45;37.15;;;14.57;;
45836;SDS011;31548;51.420;-0.040;2022-12-18T01:55:16;35.25;;;13.55;;
45836;SDS011;31548;51.420;-0.040;2022-12-18T01:57:45;33.03;;;13.35;;
45836;SDS011;31548;51.420;-0.040;2022-12-18T02:00:17;38.38;;;14.63;;
45836;SDS011;31548;51.420;-0.040;2022-12-18T02:02:46;33.47;;;13.23;;
45836;SDS011;31548;51.420;-0.040;2022-12-18T02:05:18;37.22;;;13.43;;
45836;SDS011;31548;51.420;-0.040;2022-12-18T02:08:12;35.17;;;13.10;;
45836;SDS011;31548;51.420;-0.040;2022-12-18T02:16:19;31.17;;;11.48;;
45836;SDS011;31548;51.420;-0.040;2022-12-18T02:21:45;29.20;;;11.48;;
45836;SDS011;31548;51.420;-0.040;2022-12-18T02:27:11;29.70;;;12.45;;
45836;SDS011;31548;51.420;-0.040;2022-12-18T02:29:52;30.60;;;12.43;;
45836;SDS011;31548;51.420;-0.040;2022-12-18T02:32:34;28.65;;;12.13;;
45836;SDS011;31548;51.420;-0.040;2022-12-18T02:35:06;30.02;;;12.63;;
45836;SDS011;31548;51.420;-0.040;2022-12-18T02:37:38;28.80;;;11.68;;
45836;SDS011;31548;51.420;-0.040;2022-12-18T02:40:07;26.83;;;11.05;;
45836;SDS011;31548;51.420;-0.040;2022-12-18T02:42:38;27.85;;;11.43;;
45836;SDS011;31548;51.420;-0.040;2022-12-18T02:45:07;30.77;;;12.57;;
45836;SDS011;31548;51.420;-0.040;2022-12-18T02:47:37;38.95;;;12.90;;
45836;SDS011;31548;51.420;-0.040;2022-12-18T02:50:19;33.72;;;12.27;;
45836;SDS011;31548;51.420;-0.040;2022-12-18T03:04:29;27.10;;;10.75;;
45836;SDS011;31548;51.420;-0.040;2022-12-18T03:07:21;27.17;;;10.23;;
45836;SDS011;31548;51.420;-0.040;2022-12-18T03:10:00;31.52;;;11.10;;
45836;SDS011;31548;51.420;-0.040;2022-12-18T03:12:30;27.02;;;9.68;;
45836;SDS011;31548;51.420;-0.040;2022-12-18T03:15:06;28.42;;;9.63;;
45836;SDS011;31548;51.420;-0.040;2022-12-18T03:17:45;25.70;;;10.23;;
45836;SDS011;31548;51.420;-0.040;2022-12-18T03:20:18;26.20;;;10.93;;
45836;SDS011;31548;51.420;-0.040;2022-12-18T03:22:49;29.40;;;10.10;;
45836;SDS011;31548;51.420;-0.040;2022-12-18T03:25:22;25.27;;;10.07;;
45836;SDS011;31548;51.420;-0.040;2022-12-18T03:27:54;25.00;;;9.65;;
45836;SDS011;31548;51.420;-0.040;2022-12-18T03:30:25;29.83;;;11.80;;
45836;SDS011;31548;51.420;-0.040;2022-12-18T03:35:39;28.23;;;9.15;;
45836;SDS011;31548;51.420;-0.040;2022-12-18T03:38:10;23.17;;;8.70;;
45836;SDS011;31548;51.420;-0.040;2022-12-18T03:40:44;24.30;;;10.20;;
45836;SDS011;31548;51.420;-0.040;2022-12-18T03:43:18;26.10;;;10.27;;
45836;SDS011;31548;51.420;-0.040;2022-12-18T03:46:02;29.88;;;11.30;;
45836;SDS011;31548;51.420;-0.040;2022-12-18T03:48:38;27.48;;;9.82;;
45836;SDS011;31548;51.420;-0.040;2022-12-18T03:51:16;24.65;;;9.07;;
45836;SDS011;31548;51.420;-0.040;2022-12-18T03:53:58;24.67;;;9.55;;
45836;SDS011;31548;51.420;-0.040;2022-12-18T03:56:32;25.63;;;9.27;;
45836;SDS011;31548;51.420;-0.040;2022-12-18T03:59:04;27.67;;;9.93;;
45836;SDS011;31548;51.420;-0.040;2022-12-18T04:01:33;27.70;;;10.02;;
45836;SDS011;31548;51.420;-0.040;2022-12-18T04:04:04;28.30;;;9.95;;
45836;SDS011;31548;51.420;-0.040;2022-12-18T04:06:36;26.33;;;10.57;;
45836;SDS011;31548;51.420;-0.040;2022-12-18T04:09:07;27.13;;;9.75;;
45836;SDS011;31548;51.420;-0.040;2022-12-18T04:11:39;23.08;;;9.32;;
45836;SDS011;31548;51.420;-0.040;2022-12-18T04:14:07;24.08;;;8.45;;
45836;SDS011;31548;51.420;-0.040;2022-12-18T04:16:41;26.30;;;9.07;;
45836;SDS011;31548;51.420;-0.040;2022-12-18T04:19:12;26.17;;;9.63;;
45836;SDS011;31548;51.420;-0.040;2022-12-18T04:21:42;28.27;;;9.50;;
45836;SDS011;31548;51.420;-0.040;2022-12-18T04:24:11;26.33;;;9.30;;
45836;SDS011;31548;51.420;-0.040;2022-12-18T04:26:44;26.13;;;9.40;;
45836;SDS011;31548;51.420;-0.040;2022-12-18T04:29:22;25.45;;;9.52;;
45836;SDS011;31548;51.420;-0.040;2022-12-18T04:31:50;23.23;;;8.82;;
45836;SDS011;31548;51.420;-0.040;2022-12-18T04:34:18;20.20;;;8.38;;
45836;SDS011;31548;51.420;-0.040;2022-12-18T04:36:51;24.30;;;8.55;;
45836;SDS011;31548;51.420;-0.040;2022-12-18T04:39:19;23.33;;;8.68;;
45836;SDS011;31548;51.420;-0.040;2022-12-18T04:41:49;20.73;;;8.13;;
45836;SDS011;31548;51.420;-0.040;2022-12-18T04:44:16;27.40;;;9.45;;
45836;SDS011;31548;51.420;-0.040;2022-12-18T04:46:44;27.15;;;9.70;;
45836;SDS011;31548;51.420;-0.040;2022-12-18T04:49:11;20.95;;;8.02;;
45836;SDS011;31548;51.420;-0.040;2022-12-18T04:51:39;19.17;;;7.40;;
45836;SDS011;31548;51.420;-0.040;2022-12-18T04:54:06;23.48;;;8.95;;
45836;SDS011;31548;51.420;-0.040;2022-12-18T04:56:33;21.05;;;9.35;;
45836;SDS011;31548;51.420;-0.040;2022-12-18T04:59:01;22.77;;;9.40;;
45836;SDS011;31548;51.420;-0.040;2022-12-18T05:01:28;25.83;;;9.63;;
45836;SDS011;31548;51.420;-0.040;2022-12-18T05:04:01;24.05;;;8.48;;
45836;SDS011;31548;51.420;-0.040;2022-12-18T05:06:28;24.02;;;9.07;;
45836;SDS011;31548;51.420;-0.040;2022-12-18T05:08:56;25.58;;;9.90;;
45836;SDS011;31548;51.420;-0.040;2022-12-18T05:11:23;27.80;;;11.00;;
45836;SDS011;31548;51.420;-0.040;2022-12-18T05:13:50;29.05;;;11.18;;
45836;SDS011;31548;51.420;-0.040;2022-12-18T05:16:18;37.05;;;13.77;;
45836;SDS011;31548;51.420;-0.040;2022-12-18T05:18:45;33.88;;;13.48;;
45836;SDS011;31548;51.420;-0.040;2022-12-18T05:21:12;32.97;;;13.60;;
45836;SDS011;31548;51.420;-0.040;2022-12-18T05:23:40;45.40;;;15.18;;
45836;SDS011;31548;51.420;-0.040;2022-12-18T05:26:08;27.75;;;12.10;;
45836;SDS011;31548;51.420;-0.040;2022-12-18T05:28:38;43.13;;;14.75;;
45836;SDS011;31548;51.420;-0.040;2022-12-18T05:31:05;32.53;;;11.93;;
45836;SDS011;31548;51.420;-0.040;2022-12-18T05:33:33;28.10;;;11.60;;
45836;SDS011;31548;51.420;-0.040;2022-12-18T05:36:02;35.72;;;13.05;;
45836;SDS011;31548;51.420;-0.040;2022-12-18T05:38:31;34.13;;;12.10;;
45836;SDS011;31548;51.420;-0.040;2022-12-18T05:40:59;29.50;;;12.48;;
45836;SDS011;31548;51.420;-0.040;2022-12-18T05:43:27;37.40;;;13.20;;
45836;SDS011;31548;51.420;-0.040;2022-12-18T05:45:55;30.67;;;12.15;;
45836;SDS011;31548;51.420;-0.040;2022-12-18T05:48:23;25.55;;;10.25;;
45836;SDS011;31548;51.420;-0.040;2022-12-18T05:50:51;30.42;;;12.32;;
45836;SDS011;31548;51.420;-0.040;2022-12-18T05:53:19;33.45;;;11.43;;
45836;SDS011;31548;51.420;-0.040;2022-12-18T05:55:47;41.65;;;14.68;;
45836;SDS011;31548;51.420;-0.040;2022-12-18T05:58:14;36.30;;;12.68;;
45836;SDS011;31548;51.420;-0.040;2022-12-18T06:00:43;30.45;;;12.40;;
45836;SDS011;31548;51.420;-0.040;2022-12-18T06:03:12;34.25;;;13.45;;
45836;SDS011;31548;51.420;-0.040;2022-12-18T06:05:43;30.33;;;11.52;;
45836;SDS011;31548;51.420;-0.040;2022-12-18T06:08:12;31.23;;;10.98;;
45836;SDS011;31548;51.420;-0.040;2022-12-18T06:10:40;26.42;;;10.75;;
45836;SDS011;31548;51.420;-0.040;2022-12-18T06:13:08;26.40;;;10.63;;
45836;SDS011;31548;51.420;-0.040;2022-12-18T06:15:36;31.48;;;10.82;;
45836;SDS011;31548;51.420;-0.040;2022-12-18T06:18:04;26.98;;;11.48;;
45836;SDS011;31548;51.420;-0.040;2022-12-18T06:20:31;31.65;;;12.38;;
45836;SDS011;31548;51.420;-0.040;2022-12-18T06:22:59;30.67;;;12.60;;
45836;SDS011;31548;51.420;-0.040;2022-12-18T06:25:27;29.50;;;11.68;;
45836;SDS011;31548;51.420;-0.040;2022-12-18T06:27:54;34.03;;;11.70;;
45836;SDS011;31548;51.420;-0.040;2022-12-18T06:30:22;40.67;;;16.00;;
45836;SDS011;31548;51.420;-0.040;2022-12-18T06:32:49;25.10;;;11.13;;
45836;SDS011;31548;51.420;-0.040;2022-12-18T06:35:22;33.33;;;12.20;;
45836;SDS011;31548;51.420;-0.040;2022-12-18T06:37:50;34.88;;;12.73;;
45836;SDS011;31548;51.420;-0.040;2022-12-18T06:40:17;28.40;;;11.98;;
45836;SDS011;31548;51.420;-0.040;2022-12-18T06:42:45;37.50;;;13.82;;
45836;SDS011;31548;51.420;-0.040;2022-12-18T06:45:12;32.67;;;12.70;;
45836;SDS011;31548;51.420;-0.040;2022-12-18T06:47:40;38.70;;;13.05;;
45836;SDS011;31548;51.420;-0.040;2022-12-18T06:50:07;32.28;;;11.70;;
45836;SDS011;31548;51.420;-0.040;2022-12-18T06:52:34;33.45;;;12.55;;
45836;SDS011;31548;51.420;-0.040;2022-12-18T06:55:02;31.02;;;12.30;;
45836;SDS011;31548;51.420;-0.040;2022-12-18T06:57:30;29.15;;;13.30;;
45836;SDS011;31548;51.420;-0.040;2022-12-18T06:59:57;29.52;;;11.82;;
45836;SDS011;31548;51.420;-0.040;2022-12-18T07:02:24;29.55;;;11.82;;
45836;SDS011;31548;51.420;-0.040;2022-12-18T07:04:51;28.00;;;11.13;;
45836;SDS011;31548;51.420;-0.040;2022-12-18T07:07:19;32.05;;;12.38;;
45836;SDS011;31548;51.420;-0.040;2022-12-18T07:09:46;32.42;;;11.57;;
45836;SDS011;31548;51.420;-0.040;2022-12-18T07:12:15;31.88;;;10.82;;
45836;SDS011;31548;51.420;-0.040;2022-12-18T07:14:43;30.83;;;12.98;;
45836;SDS011;31548;51.420;-0.040;2022-12-18T07:17:10;37.70;;;14.38;;
45836;SDS011;31548;51.420;-0.040;2022-12-18T07:19:39;41.63;;;14.38;;
45836;SDS011;31548;51.420;-0.040;2022-12-18T07:22:06;29.65;;;11.82;;
45836;SDS011;31548;51.420;-0.040;2022-12-18T07:24:33;30.17;;;11.18;;
45836;SDS011;31548;51.420;-0.040;2022-12-18T07:27:01;27.60;;;11.25;;
45836;SDS011;31548;51.420;-0.040;2022-12-18T07:29:30;34.17;;;13.30;;
45836;SDS011;31548;51.420;-0.040;2022-12-18T07:31:57;33.25;;;12.60;;
45836;SDS011;31548;51.420;-0.040;2022-12-18T07:34:24;32.88;;;12.75;;
45836;SDS011;31548;51.420;-0.040;2022-12-18T07:36:52;36.85;;;13.43;;
45836;SDS011;31548;51.420;-0.040;2022-12-18T07:39:19;37.45;;;15.05;;
45836;SDS011;31548;51.420;-0.040;2022-12-18T07:41:46;32.03;;;13.15;;
45836;SDS011;31548;51.420;-0.040;2022-12-18T07:44:33;31.88;;;13.02;;
45836;SDS011;31548;51.420;-0.040;2022-12-18T07:47:01;32.42;;;12.63;;
45836;SDS011;31548;51.420;-0.040;2022-12-18T07:49:34;31.77;;;13.23;;
45836;SDS011;31548;51.420;-0.040;2022-12-18T07:52:01;31.77;;;11.13;;
45836;SDS011;31548;51.420;-0.040;2022-12-18T07:54:29;33.83;;;11.55;;
45836;SDS011;31548;51.420;-0.040;2022-12-18T07:56:56;30.20;;;10.88;;
45836;SDS011;31548;51.420;-0.040;2022-12-18T07:59:23;34.17;;;11.15;;
45836;SDS011;31548;51.420;-0.040;2022-12-18T08:01:50;32.35;;;10.35;;
45836;SDS011;31548;51.420;-0.040;2022-12-18T08:04:18;27.13;;;10.88;;
45836;SDS011;31548;51.420;-0.040;2022-12-18T08:06:45;33.30;;;11.00;;
45836;SDS011;31548;51.420;-0.040;2022-12-18T08:09:13;33.00;;;10.90;;
45836;SDS011;31548;51.420;-0.040;2022-12-18T08:11:41;27.67;;;10.88;;
45836;SDS011;31548;51.420;-0.040;2022-12-18T08:14:08;27.40;;;11.40;;
45836;SDS011;31548;51.420;-0.040;2022-12-18T08:16:36;29.00;;;9.82;;
45836;SDS011;31548;51.420;-0.040;2022-12-18T08:19:03;31.15;;;11.05;;
45836;SDS011;31548;51.420;-0.040;2022-12-18T08:21:31;28.52;;;11.85;;
45836;SDS011;31548;51.420;-0.040;2022-12-18T08:23:59;29.55;;;10.25;;
45836;SDS011;31548;51.420;-0.040;2022-12-18T08:26:29;29.60;;;11.13;;
45836;SDS011;31548;51.420;-0.040;2022-12-18T08:28:58;25.17;;;11.05;;
45836;SDS011;31548;51.420;-0.040;2022-12-18T08:31:27;26.83;;;10.07;;
45836;SDS011;31548;51.420;-0.040;2022-12-18T08:33:56;28.30;;;9.25;;
45836;SDS011;31548;51.420;-0.040;2022-12-18T08:36:24;26.88;;;10.48;;
45836;SDS011;31548;51.420;-0.040;2022-12-18T08:38:52;32.30;;;11.63;;
45836;SDS011;31548;51.420;-0.040;2022-12-18T08:41:20;30.15;;;11.05;;
45836;SDS011;31548;51.420;-0.040;2022-12-18T08:43:48;25.70;;;11.13;;
45836;SDS011;31548;51.420;-0.040;2022-12-18T08:46:38;28.35;;;10.15;;
45836;SDS011;31548;51.420;-0.040;2022-12-18T08:49:07;27.20;;;10.30;;
45836;SDS011;31548;51.420;-0.040;2022-12-18T08:51:35;35.28;;;11.82;;
45836;SDS011;31548;51.420;-0.040;2022-12-18T08:54:02;27.08;;;11.00;;
45836;SDS011;31548;51.420;-0.040;2022-12-18T08:56:32;28.60;;;12.43;;
45836;SDS011;31548;51.420;-0.040;2022-12-18T08:59:00;23.92;;;10.30;;
45836;SDS011;31548;51.420;-0.040;2022-12-18T09:01:28;27.40;;;10.90;;
45836;SDS011;31548;51.420;-0.040;2022-12-18T09:03:56;30.55;;;12.25;;
45836;SDS011;31548;51.420;-0.040;2022-12-18T09:06:23;30.88;;;11.40;;
45836;SDS011;31548;51.420;-0.040;2022-12-18T09:08:51;31.10;;;13.23;;
45836;SDS011;31548;51.420;-0.040;2022-12-18T09:11:19;25.48;;;11.80;;
45836;SDS011;31548;51.420;-0.040;2022-12-18T09:13:49;37.42;;;14.80;;
45836;SDS011;31548;51.420;-0.040;2022-12-18T09:16:17;32.88;;;13.32;;
45836;SDS011;31548;51.420;-0.040;2022-12-18T09:18:46;40.45;;;14.88;;
45836;SDS011;31548;51.420;-0.040;2022-12-18T09:21:15;28.48;;;11.95;;
45836;SDS011;31548;51.420;-0.040;2022-12-18T09:23:50;29.08;;;10.55;;
45836;SDS011;31548;51.420;-0.040;2022-12-18T09:26:18;34.45;;;12.70;;
45836;SDS011;31548;51.420;-0.040;2022-12-18T09:28:46;29.17;;;12.57;;
45836;SDS011;31548;51.420;-0.040;2022-12-18T09:31:14;24.25;;;10.65;;
45836;SDS011;31548;51.420;-0.040;2022-12-18T09:33:41;30.33;;;12.00;;
45836;SDS011;31548;51.420;-0.040;2022-12-18T09:36:09;29.50;;;11.02;;
45836;SDS011;31548;51.420;-0.040;2022-12-18T09:38:38;28.38;;;12.07;;
45836;SDS011;31548;51.420;-0.040;2022-12-18T09:43:50;25.42;;;11.02;;
45836;SDS011;31548;51.420;-0.040;2022-12-18T09:46:25;27.58;;;10.60;;
45836;SDS011;31548;51.420;-0.040;2022-12-18T09:48:57;23.60;;;9.82;;
45836;SDS011;31548;51.420;-0.040;2022-12-18T09:51:36;26.90;;;11.15;;
45836;SDS011;31548;51.420;-0.040;2022-12-18T09:54:18;24.88;;;9.88;;
45836;SDS011;31548;51.420;-0.040;2022-12-18T09:56:49;26.15;;;10.63;;
45836;SDS011;31548;51.420;-0.040;2022-12-18T09:59:26;21.40;;;9.98;;
45836;SDS011;31548;51.420;-0.040;2022-12-18T10:02:14;25.27;;;9.43;;
45836;SDS011;31548;51.420;-0.040;2022-12-18T10:04:43;24.25;;;9.95;;
45836;SDS011;31548;51.420;-0.040;2022-12-18T10:07:18;26.15;;;10.13;;
45836;SDS011;31548;51.420;-0.040;2022-12-18T10:10:25;23.98;;;9.60;;
45836;SDS011;31548;51.420;-0.040;2022-12-18T10:13:00;27.63;;;10.52;;
45836;SDS011;31548;51.420;-0.040;2022-12-18T10:15:34;24.55;;;9.85;;
45836;SDS011;31548;51.420;-0.040;2022-12-18T10:21:21;21.75;;;9.10;;
45836;SDS011;31548;51.420;-0.040;2022-12-18T10:24:03;19.52;;;8.43;;
45836;SDS011;31548;51.420;-0.040;2022-12-18T10:26:50;23.30;;;10.07;;
45836;SDS011;31548;51.420;-0.040;2022-12-18T10:29:19;21.58;;;9.95;;
45836;SDS011;31548;51.420;-0.040;2022-12-18T10:31:47;24.63;;;10.40;;
45836;SDS011;31548;51.420;-0.040;2022-12-18T10:34:14;23.77;;;9.70;;
45836;SDS011;31548;51.420;-0.040;2022-12-18T10:36:41;33.33;;;14.05;;
45836;SDS011;31548;51.420;-0.040;2022-12-18T10:39:16;27.92;;;10.75;;
45836;SDS011;31548;51.420;-0.040;2022-12-18T10:41:49;25.63;;;10.77;;
45836;SDS011;31548;51.420;-0.040;2022-12-18T10:44:20;27.05;;;11.70;;
45836;SDS011;31548;51.420;-0.040;2022-12-18T10:46:55;29.67;;;12.25;;
45836;SDS011;31548;51.420;-0.040;2022-12-18T10:49:37;23.35;;;10.35;;
45836;SDS011;31548;51.420;-0.040;2022-12-18T10:54:51;28.77;;;11.35;;
45836;SDS011;31548;51.420;-0.040;2022-12-18T11:00:22;25.85;;;11.43;;
45836;SDS011;31548;51.420;-0.040;2022-12-18T11:02:51;23.90;;;9.85;;
45836;SDS011;31548;51.420;-0.040;2022-12-18T11:05:32;27.35;;;11.23;;
45836;SDS011;31548;51.420;-0.040;2022-12-18T11:08:03;27.70;;;11.13;;
45836;SDS011;31548;51.420;-0.040;2022-12-18T11:10:35;28.15;;;11.52;;
45836;SDS011;31548;51.420;-0.040;2022-12-18T11:13:19;24.42;;;11.98;;
45836;SDS011;31548;51.420;-0.040;2022-12-18T11:15:48;28.40;;;11.35;;
45836;SDS011;31548;51.420;-0.040;2022-12-18T11:18:22;21.70;;;10.25;;
45836;SDS011;31548;51.420;-0.040;2022-12-18T11:20:57;25.08;;;11.27;;
45836;SDS011;31548;51.420;-0.040;2022-12-18T11:23:32;22.92;;;9.75;;
45836;SDS011;31548;51.420;-0.040;2022-12-18T11:26:01;28.80;;;12.35;;
45836;SDS011;31548;51.420;-0.040;2022-12-18T11:28:37;28.75;;;12.40;;
45836;SDS011;31548;51.420;-0.040;2022-12-18T11:31:27;29.40;;;14.23;;
45836;SDS011;31548;51.420;-0.040;2022-12-18T11:36:55;38.03;;;15.82;;
45836;SDS011;31548;51.420;-0.040;2022-12-18T11:42:16;32.05;;;15.90;;
45836;SDS011;31548;51.420;-0.040;2022-12-18T11:44:54;43.30;;;18.23;;
45836;SDS011;31548;51.420;-0.040;2022-12-18T11:50:20;42.10;;;18.25;;
45836;SDS011;31548;51.420;-0.040;2022-12-18T11:52:51;41.33;;;18.33;;
45836;SDS011;31548;51.420;-0.040;2022-12-18T11:55:34;35.83;;;15.27;;
45836;SDS011;31548;51.420;-0.040;2022-12-18T12:14:42;33.17;;;15.68;;
45836;SDS011;31548;51.420;-0.040;2022-12-18T12:17:37;35.20;;;14.98;;
45836;SDS011;31548;51.420;-0.040;2022-12-18T12:23:42;28.38;;;12.35;;
45836;SDS011;31548;51.420;-0.040;2022-12-18T12:29:01;38.10;;;16.20;;
45836;SDS011;31548;51.420;-0.040;2022-12-18T12:37:38;29.13;;;13.20;;
45836;SDS011;31548;51.420;-0.040;2022-12-18T12:40:38;25.05;;;12.18;;
45836;SDS011;31548;51.420;-0.040;2022-12-18T12:43:34;37.45;;;16.65;;
45836;SDS011;31548;51.420;-0.040;2022-12-18T12:46:17;30.98;;;15.32;;
45836;SDS011;31548;51.420;-0.040;2022-12-18T12:51:21;31.35;;;14.65;;
45836;SDS011;31548;51.420;-0.040;2022-12-18T12:53:56;39.45;;;19.30;;
45836;SDS011;31548;51.420;-0.040;2022-12-18T12:56:26;30.80;;;16.65;;
45836;SDS011;31548;51.420;-0.040;2022-12-18T12:59:15;32.28;;;14.85;;
45836;SDS011;31548;51.420;-0.040;2022-12-18T13:01:58;31.10;;;15.05;;
45836;SDS011;31548;51.420;-0.040;2022-12-18T13:12:59;28.30;;;12.88;;
45836;SDS011;31548;51.420;-0.040;2022-12-18T13:18:19;32.53;;;13.88;;
45836;SDS011;31548;51.420;-0.040;2022-12-18T13:23:36;23.40;;;12.20;;
45836;SDS011;31548;51.420;-0.040;2022-12-18T13:33:41;28.48;;;12.43;;
45836;SDS011;31548;51.420;-0.040;2022-12-18T13:36:31;22.92;;;11.82;;
45836;SDS011;31548;51.420;-0.040;2022-12-18T13:45:01;22.20;;;10.40;;
45836;SDS011;31548;51.420;-0.040;2022-12-18T13:47:48;19.05;;;9.25;;
45836;SDS011;31548;51.420;-0.040;2022-12-18T13:50:21;22.67;;;10.10;;
45836;SDS011;31548;51.420;-0.040;2022-12-18T13:52:57;19.55;;;8.50;;
45836;SDS011;31548;51.420;-0.040;2022-12-18T13:55:25;19.92;;;8.88;;
45836;SDS011;31548;51.420;-0.040;2022-12-18T13:58:02;20.17;;;8.75;;
45836;SDS011;31548;51.420;-0.040;2022-12-18T14:00:31;20.52;;;9.65;;
45836;SDS011;31548;51.420;-0.040;2022-12-18T14:02:58;16.83;;;8.57;;
45836;SDS011;31548;51.420;-0.040;2022-12-18T14:05:31;18.73;;;8.80;;
45836;SDS011;31548;51.420;-0.040;2022-12-18T14:08:05;19.23;;;9.88;;
45836;SDS011;31548;51.420;-0.040;2022-12-18T14:10:46;18.10;;;8.13;;
45836;SDS011;31548;51.420;-0.040;2022-12-18T14:13:28;18.02;;;9.18;;
45836;SDS011;31548;51.420;-0.040;2022-12-18T14:15:59;17.00;;;8.65;;
45836;SDS011;31548;51.420;-0.040;2022-12-18T14:18:36;19.50;;;9.15;;
45836;SDS011;31548;51.420;-0.040;2022-12-18T14:21:19;13.68;;;7.47;;
45836;SDS011;31548;51.420;-0.040;2022-12-18T14:26:49;19.17;;;9.25;;
45836;SDS011;31548;51.420;-0.040;2022-12-18T14:32:10;16.60;;;8.93;;
45836;SDS011;31548;51.420;-0.040;2022-12-18T14:34:48;17.95;;;8.85;;
45836;SDS011;31548;51.420;-0.040;2022-12-18T14:37:21;18.33;;;8.90;;
45836;SDS011;31548;51.420;-0.040;2022-12-18T14:39:54;19.45;;;7.90;;
45836;SDS011;31548;51.420;-0.040;2022-12-18T14:42:35;17.02;;;8.98;;
45836;SDS011;31548;51.420;-0.040;2022-12-18T14:48:08;22.83;;;10.70;;
45836;SDS011;31548;51.420;-0.040;2022-12-18T14:50:56;25.15;;;11.43;;
45836;SDS011;31548;51.420;-0.040;2022-12-18T14:53:36;25.75;;;11.70;;
45836;SDS011;31548;51.420;-0.040;2022-12-18T14:56:26;20.50;;;8.32;;
45836;SDS011;31548;51.420;-0.040;2022-12-18T14:58:59;17.13;;;8.07;;
45836;SDS011;31548;51.420;-0.040;2022-12-18T15:01:33;14.32;;;7.03;;
45836;SDS011;31548;51.420;-0.040;2022-12-18T15:04:04;16.50;;;6.97;;
45836;SDS011;31548;51.420;-0.040;2022-12-18T15:06:50;13.82;;;7.03;;
45836;SDS011;31548;51.420;-0.040;2022-12-18T15:09:38;15.60;;;7.57;;
45836;SDS011;31548;51.420;-0.040;2022-12-18T15:12:28;11.93;;;6.13;;
45836;SDS011;31548;51.420;-0.040;2022-12-18T15:15:02;13.05;;;6.13;;
45836;SDS011;31548;51.420;-0.040;2022-12-18T15:17:31;12.85;;;5.95;;
45836;SDS011;31548;51.420;-0.040;2022-12-18T15:19:59;17.10;;;7.32;;
45836;SDS011;31548;51.420;-0.040;2022-12-18T15:22:29;10.88;;;6.03;;
45836;SDS011;31548;51.420;-0.040;2022-12-18T15:25:01;12.48;;;5.65;;
45836;SDS011;31548;51.420;-0.040;2022-12-18T15:27:33;11.05;;;6.00;;
45836;SDS011;31548;51.420;-0.040;2022-12-18T15:32:36;12.50;;;6.90;;
45836;SDS011;31548;51.420;-0.040;2022-12-18T15:37:37;10.38;;;5.28;;
45836;SDS011;31548;51.420;-0.040;2022-12-18T15:40:07;11.45;;;5.55;;
45836;SDS011;31548;51.420;-0.040;2022-12-18T15:42:39;11.25;;;4.68;;
45836;SDS011;31548;51.420;-0.040;2022-12-18T15:45:25;9.05;;;4.22;;
45836;SDS011;31548;51.420;-0.040;2022-12-18T15:47:52;13.25;;;5.00;;
45836;SDS011;31548;51.420;-0.040;2022-12-18T15:50:20;8.90;;;4.30;;
45836;SDS011;31548;51.420;-0.040;2022-12-18T15:52:48;8.13;;;4.30;;
45836;SDS011;31548;51.420;-0.040;2022-12-18T15:55:19;9.35;;;4.57;;
45836;SDS011;31548;51.420;-0.040;2022-12-18T15:58:07;10.85;;;5.10;;
45836;SDS011;31548;51.420;-0.040;2022-12-18T16:00:36;8.25;;;4.68;;
45836;SDS011;31548;51.420;-0.040;2022-12-18T16:03:05;6.45;;;3.28;;
45836;SDS011;31548;51.420;-0.040;2022-12-18T16:05:33;4.93;;;2.67;;
45836;SDS011;31548;51.420;-0.040;2022-12-18T16:08:00;5.85;;;2.53;;
45836;SDS011;31548;51.420;-0.040;2022-12-18T16:10:28;7.05;;;3.28;;
45836;SDS011;31548;51.420;-0.040;2022-12-18T16:12:55;7.03;;;3.17;;
45836;SDS011;31548;51.420;-0.040;2022-12-18T16:15:22;6.13;;;3.05;;
45836;SDS011;31548;51.420;-0.040;2022-12-18T16:17:50;9.07;;;3.55;;
45836;SDS011;31548;51.420;-0.040;2022-12-18T16:20:19;6.15;;;3.20;;
45836;SDS011;31548;51.420;-0.040;2022-12-18T16:22:48;4.10;;;2.38;;
45836;SDS011;31548;51.420;-0.040;2022-12-18T16:25:17;3.60;;;2.05;;
45836;SDS011;31548;51.420;-0.040;2022-12-18T16:27:44;5.05;;;2.72;;
45836;SDS011;31548;51.420;-0.040;2022-12-18T16:30:14;4.90;;;2.15;;
45836;SDS011;31548;51.420;-0.040;2022-12-18T16:32:43;4.45;;;1.95;;
45836;SDS011;31548;51.420;-0.040;2022-12-18T16:35:11;4.18;;;2.00;;
45836;SDS011;31548;51.420;-0.040;2022-12-18T16:37:39;2.70;;;1.60;;
45836;SDS011;31548;51.420;-0.040;2022-12-18T16:40:08;3.20;;;1.55;;
45836;SDS011;31548;51.420;-0.040;2022-12-18T16:42:37;2.95;;;1.40;;
45836;SDS011;31548;51.420;-0.040;2022-12-18T16:45:06;5.55;;;1.02;;